Time;durP1;ratioP1;P1;durP2;ratioP2;P2;SDS_P1;SDS_P2;PMS_P1;PMS_P2;Temp;Humidity;BMP_temperature;BMP_pressure;BME280_temperature;BME280_humidity;BME280_pressure;Samples;Min_cycle;Max_cycle;Signal;HPM_P1;HPM_P2
2023/03/27 00:02:41;;;;;;;3.70;0.75;;;15.30;97.10;;;;;;10447025;28;20090;-23
2023/03/27 00:07:44;;;;;;;2.20;0.70;;;14.50;76.00;;;;;;10461902;28;20053;-23
2023/03/27 00:12:46;;;;;;;3.67;0.70;;;13.60;99.90;;;;;;10456983;28;20160;-22
2023/03/27 00:17:50;;;;;;;5.30;0.90;;;15.30;94.20;;;;;;10461557;28;20084;-24
2023/03/27 00:22:55;;;;;;;2.65;0.80;;;15.40;95.10;;;;;;10457671;28;20052;-23
2023/03/27 00:27:57;;;;;;;4.07;1.17;;;16.30;81.70;;;;;;10447625;28;20040;-23
2023/03/27 00:32:59;;;;;;;4.45;0.70;;;14.70;88.10;;;;;;10452397;28;20075;-23
2023/03/27 00:38:03;;;;;;;7.80;0.82;;;16.40;72.00;;;;;;10434551;28;20071;-22
2023/03/27 00:43:19;;;;;;;3.38;0.75;;;13.80;97.90;;;;;;10452053;28;20128;-22
2023/03/27 00:48:22;;;;;;;1.30;0.43;;;15.00;92.40;;;;;;10438222;28;20057;-21
2023/03/27 00:53:28;;;;;;;1.35;0.60;;;15.20;96.40;;;;;;10456348;28;20056;-22
2023/03/27 00:58:36;;;;;;;2.17;0.60;;;16.50;91.10;;;;;;10447508;28;20128;-23
2023/03/27 01:03:40;;;;;;;2.17;0.60;;;17.10;86.40;;;;;;10432820;28;20168;-24
2023/03/27 01:08:46;;;;;;;2.10;0.90;;;17.90;79.80;;;;;;10445099;28;20064;-24
2023/03/27 01:13:59;;;;;;;2.83;1.00;;;18.10;78.20;;;;;;10441701;28;20056;-24
2023/03/27 01:19:25;;;;;;;3.10;0.73;;;17.90;76.40;;;;;;10424733;28;20365;-23
2023/03/27 01:25:03;;;;;;;3.05;0.45;;;17.20;84.10;;;;;;10434327;28;20589;-23
2023/03/27 01:30:12;;;;;;;1.63;0.50;;;16.00;62.80;;;;;;10435510;28;20474;-22
2023/03/27 01:35:38;;;;;;;5.78;0.85;;;17.60;81.50;;;;;;10438287;28;20057;-23
2023/03/27 01:40:46;;;;;;;4.97;0.70;;;18.00;77.60;;;;;;10435651;28;20049;-22
2023/03/27 01:45:54;;;;;;;1.73;0.70;;;18.10;77.00;;;;;;10439783;28;20128;-23
2023/03/27 01:50:59;;;;;;;1.02;0.50;;;17.40;77.30;;;;;;10451976;28;20073;-23
2023/03/27 01:56:07;;;;;;;0.80;0.60;;;17.60;79.30;;;;;;10447645;28;20140;-22
2023/03/27 02:01:10;;;;;;;2.20;0.68;;;17.90;77.80;;;;;;10431599;28;20131;-24
2023/03/27 02:06:16;;;;;;;0.95;0.30;;;17.80;78.60;;;;;;10438058;28;20080;-23
2023/03/27 02:11:22;;;;;;;1.27;0.55;;;17.80;77.50;;;;;;10444291;28;20696;-25
2023/03/27 02:16:32;;;;;;;0.40;0.30;;;17.00;79.70;;;;;;10428917;28;20084;-24
2023/03/27 02:21:34;;;;;;;2.67;0.40;;;16.50;87.70;;;;;;10439847;28;20049;-23
2023/03/27 02:26:37;;;;;;;1.75;0.50;;;17.40;82.10;;;;;;10443143;28;20080;-24
2023/03/27 02:31:50;;;;;;;2.65;0.35;;;17.90;77.60;;;;;;10439119;28;20069;-24
2023/03/27 02:37:00;;;;;;;1.98;0.52;;;17.90;76.60;;;;;;10458676;28;20146;-25
2023/03/27 02:42:12;;;;;;;1.58;0.40;;;18.00;76.00;;;;;;10461157;28;20041;-24
2023/03/27 02:47:19;;;;;;;0.73;0.43;;;18.00;75.60;;;;;;10427289;28;20049;-23
2023/03/27 02:52:26;;;;;;;0.68;0.30;;;17.90;75.90;;;;;;10465451;28;20069;-23
2023/03/27 02:57:32;;;;;;;1.35;0.50;;;18.00;75.30;;;;;;10445979;28;20053;-24
2023/03/27 03:02:36;;;;;;;1.90;0.50;;;18.00;75.10;;;;;;10449033;28;20041;-23
2023/03/27 03:07:39;;;;;;;2.38;0.50;;;18.00;75.30;;;;;;10431745;28;20129;-23
2023/03/27 03:12:42;;;;;;;1.60;0.47;;;18.00;74.90;;;;;;10453193;28;20095;-23
2023/03/27 03:17:44;;;;;;;0.65;0.38;;;18.00;75.30;;;;;;10454715;28;20448;-24
2023/03/27 03:22:46;;;;;;;0.88;0.40;;;18.00;75.20;;;;;;10450937;28;20407;-22
2023/03/27 03:27:49;;;;;;;0.30;0.30;;;17.90;75.30;;;;;;10464052;28;20076;-23
2023/03/27 03:32:51;;;;;;;3.13;0.50;;;17.90;75.40;;;;;;10458401;28;20127;-22
2023/03/27 03:37:53;;;;;;;;;;;17.90;75.10;;;;;;10457155;28;20046;-23
2023/03/27 03:42:56;;;;;;;1.75;0.40;;;17.80;75.90;;;;;;10448622;28;19963;-22
2023/03/27 03:47:58;;;;;;;2.90;1.25;;;16.30;85.00;;;;;;10446845;28;20133;-24
2023/03/27 03:53:00;;;;;;;1.87;0.70;;;15.20;90.70;;;;;;10454418;28;20043;-22
2023/03/27 03:58:03;;;;;;;3.67;1.10;;;16.00;90.00;;;;;;10481940;28;20066;-23
2023/03/27 04:03:07;;;;;;;1.23;0.35;;;13.90;96.20;;;;;;10456098;28;20136;-21
2023/03/27 04:08:09;;;;;;;7.32;0.98;;;14.70;95.90;;;;;;10445719;28;20045;-23
2023/03/27 04:13:12;;;;;;;3.00;0.70;;;14.20;75.60;;;;;;10454607;28;20140;-23
2023/03/27 04:18:15;;;;;;;4.35;0.73;;;14.80;94.10;;;;;;10471103;28;20052;-23
2023/03/27 04:23:17;;;;;;;;;;;14.20;90.90;;;;;;10448510;28;20143;-24
2023/03/27 04:28:21;;;;;;;2.67;0.50;;;14.50;95.30;;;;;;10449708;28;19921;-24
2023/03/27 04:33:23;;;;;;;2.33;0.75;;;16.00;84.40;;;;;;10435270;28;20119;-25
2023/03/27 04:38:25;;;;;;;1.70;0.37;;;14.90;87.40;;;;;;10451556;28;20400;-23
2023/03/27 04:43:28;;;;;;;4.43;1.08;;;15.80;88.50;;;;;;10442849;28;20549;-24
2023/03/27 04:48:30;;;;;;;0.75;0.40;;;14.20;88.70;;;;;;10453975;28;20061;-23
2023/03/27 04:53:34;;;;;;;1.10;0.30;;;16.80;82.00;;;;;;10451548;28;20056;-23
2023/03/27 04:58:39;;;;;;;4.10;0.47;;;17.00;80.50;;;;;;10438102;28;20056;-23
2023/03/27 05:03:41;;;;;;;7.50;1.02;;;15.10;91.80;;;;;;10446970;28;20044;-23
2023/03/27 05:08:43;;;;;;;5.60;1.00;;;11.60;81.90;;;;;;10445112;28;20086;-22
2023/03/27 05:13:46;;;;;;;8.30;1.10;;;14.00;62.50;;;;;;10450223;28;20091;-22
2023/03/27 05:18:48;;;;;;;5.68;1.08;;;13.30;90.50;;;;;;10442712;28;20076;-23
2023/03/27 05:23:50;;;;;;;7.20;0.70;;;13.20;78.20;;;;;;10443002;28;20049;-24
2023/03/27 05:28:54;;;;;;;4.50;0.73;;;14.70;93.50;;;;;;10427215;28;20056;-23
2023/03/27 05:33:57;;;;;;;9.98;1.85;;;13.50;98.10;;;;;;10442567;28;20131;-23
2023/03/27 05:38:59;;;;;;;;;;;12.50;93.50;;;;;;10454401;28;20049;-22
2023/03/27 05:44:02;;;;;;;4.88;1.25;;;13.50;79.80;;;;;;10449465;28;19959;-22
2023/03/27 05:49:04;;;;;;;5.28;1.10;;;12.00;99.90;;;;;;10453704;28;20048;-23
2023/03/27 05:54:06;;;;;;;6.97;1.33;;;12.10;99.90;;;;;;10448744;28;20053;-23
2023/03/27 05:59:09;;;;;;;1.80;0.60;;;11.90;99.90;;;;;;10450161;28;20052;-23
2023/03/27 06:15:25;;;;;;;6.53;1.42;;;12.40;91.10;;;;;;10544896;27;20113;-23
2023/03/27 06:20:27;;;;;;;3.83;0.90;;;10.60;93.40;;;;;;10527311;28;20097;-21
2023/03/27 06:25:32;;;;;;;5.07;0.93;;;11.20;99.90;;;;;;10536796;28;20127;-21
2023/03/27 06:30:36;;;;;;;5.18;0.88;;;11.30;70.00;;;;;;10523769;28;20037;-23
2023/03/27 06:35:39;;;;;;;4.20;0.93;;;12.10;99.90;;;;;;10523897;28;20060;-23
2023/03/27 06:40:41;;;;;;;2.85;0.63;;;13.90;79.20;;;;;;10536017;28;20558;-23
2023/03/27 06:45:47;;;;;;;3.05;0.50;;;15.30;91.20;;;;;;10538240;28;20044;-22
2023/03/27 06:50:51;;;;;;;11.85;1.30;;;15.10;85.60;;;;;;10534694;28;20575;-22
2023/03/27 06:55:53;;;;;;;3.10;0.50;;;10.40;79.40;;;;;;10530461;28;20046;-23
2023/03/27 07:00:56;;;;;;;2.58;0.80;;;11.40;91.00;;;;;;10524374;28;20127;-23
2023/03/27 07:05:59;;;;;;;2.55;0.68;;;13.90;96.50;;;;;;10520352;28;20105;-23
2023/03/27 07:11:02;;;;;;;4.18;0.68;;;12.60;99.90;;;;;;10531026;28;20060;-23
2023/03/27 07:16:07;;;;;;;2.58;0.98;;;14.60;92.10;;;;;;10522604;28;20040;-23
2023/03/27 07:21:09;;;;;;;3.55;0.47;;;12.70;97.40;;;;;;10532067;28;20122;-23
2023/03/27 07:26:11;;;;;;;4.93;0.70;;;13.70;92.70;;;;;;10511209;28;20370;-23
2023/03/27 07:31:15;;;;;;;1.70;0.40;;;12.00;98.40;;;;;;10491475;28;20146;-23
2023/03/27 07:36:17;;;;;;;3.65;0.80;;;14.60;73.40;;;;;;10505971;28;20477;-23
2023/03/27 07:41:19;;;;;;;6.30;1.17;;;10.70;83.60;;;;;;10495943;28;20052;-23
2023/03/27 07:46:24;;;;;;;4.80;0.63;;;10.90;99.90;;;;;;10494863;28;20056;-22
2023/03/27 07:51:27;;;;;;;20.48;1.75;;;11.80;99.90;;;;;;10492054;28;20058;-20
2023/03/27 07:56:28;;;;;;;2.97;0.70;;;11.40;99.90;;;;;;10496974;28;20050;-23
2023/03/27 08:01:32;;;;;;;9.10;0.75;;;10.70;99.60;;;;;;10499477;28;20064;-22
2023/03/27 08:06:34;;;;;;;4.88;0.70;;;12.90;94.60;;;;;;10493976;28;20045;-22
2023/03/27 08:11:37;;;;;;;2.07;0.67;;;11.70;99.90;;;;;;10498096;28;20099;-26
2023/03/27 08:16:40;;;;;;;5.70;0.85;;;15.00;90.40;;;;;;10499431;28;20139;-22
2023/03/27 08:21:42;;;;;;;3.00;0.70;;;11.10;62.80;;;;;;10501755;28;20052;-24
2023/03/27 08:26:44;;;;;;;2.87;0.60;;;13.80;79.70;;;;;;10501200;28;20059;-23
2023/03/27 08:31:47;;;;;;;10.55;1.08;;;13.80;85.80;;;;;;10505175;28;20054;-23
2023/03/27 08:36:51;;;;;;;4.50;1.00;;;12.40;95.40;;;;;;10499321;28;20829;-22
2023/03/27 08:41:55;;;;;;;5.93;1.52;;;9.10;99.90;;;;;;10496954;28;20052;-23
2023/03/27 08:47:03;;;;;;;7.25;0.77;;;8.00;99.90;;;;;;10495106;28;20663;-24
2023/03/27 08:52:14;;;;;;;2.75;1.10;;;7.50;99.90;;;;;;10485027;28;20084;-22
2023/03/27 08:57:19;;;;;;;4.75;1.00;;;10.40;99.90;;;;;;10489881;28;20075;-22
2023/03/27 09:02:34;;;;;;;1.70;0.50;;;13.40;97.30;;;;;;10502067;28;20044;-22
2023/03/27 09:07:43;;;;;;;7.50;0.90;;;14.90;88.90;;;;;;10478903;28;20048;-22
2023/03/27 09:12:56;;;;;;;3.90;0.75;;;11.10;91.30;;;;;;10482590;28;20048;-23
2023/03/27 09:18:02;;;;;;;3.60;0.77;;;10.90;99.90;;;;;;10490793;28;20127;-23
2023/03/27 09:23:11;;;;;;;9.13;2.05;;;8.30;99.90;;;;;;10489750;28;20583;-23
2023/03/27 09:28:21;;;;;;;12.23;1.42;;;10.30;99.80;;;;;;10489389;28;20043;-22
2023/03/27 09:33:25;;;;;;;12.73;1.33;;;10.40;99.90;;;;;;10492577;28;20512;-22
2023/03/27 09:38:32;;;;;;;6.53;0.93;;;9.80;99.90;;;;;;10488458;28;20114;-21
2023/03/27 09:43:40;;;;;;;4.53;1.10;;;9.50;99.90;;;;;;10494860;28;20885;-22
2023/03/27 09:48:49;;;;;;;6.57;1.50;;;11.80;99.90;;;;;;10481230;28;20056;-22
2023/03/27 09:53:58;;;;;;;5.47;0.70;;;13.40;91.70;;;;;;10487985;28;20064;-21
2023/03/27 09:59:08;;;;;;;8.45;0.93;;;11.80;61.10;;;;;;10494578;28;20056;-21
2023/03/27 10:04:16;;;;;;;2.85;0.65;;;13.10;62.00;;;;;;10493784;28;20097;-23
2023/03/27 10:09:25;;;;;;;6.07;0.90;;;15.40;80.70;;;;;;10492316;28;20115;-25
2023/03/27 10:14:28;;;;;;;4.10;1.02;;;16.30;77.10;;;;;;10486474;28;20056;-24
2023/03/27 10:19:35;;;;;;;6.40;1.00;;;16.90;71.90;;;;;;10489730;28;20051;-23
2023/03/27 10:24:39;;;;;;;5.85;1.00;;;16.30;67.10;;;;;;10504856;28;20103;-23
2023/03/27 10:29:41;;;;;;;3.80;0.60;;;13.70;78.60;;;;;;10498779;28;20056;-22
2023/03/27 10:34:54;;;;;;;7.38;0.88;;;16.20;66.10;;;;;;10497993;28;20044;-23
2023/03/27 10:39:58;;;;;;;;;;;15.80;76.10;;;;;;10495787;28;20473;-23
2023/03/27 10:45:00;;;;;;;5.18;0.90;;;15.70;67.20;;;;;;10489458;28;20027;-23
2023/03/27 10:50:10;;;;;;;4.40;0.50;;;15.60;81.40;;;;;;10486444;28;20724;-23
2023/03/27 10:55:22;;;;;;;2.47;0.57;;;15.10;78.50;;;;;;10488342;28;20074;-23
2023/03/27 11:00:31;;;;;;;4.13;0.87;;;15.30;72.60;;;;;;10502423;28;20110;-23
2023/03/27 11:05:40;;;;;;;7.75;1.77;;;13.70;66.50;;;;;;10496977;28;20477;-23
2023/03/27 11:10:45;;;;;;;5.93;1.00;;;14.10;81.60;;;;;;10498624;28;20063;-24
2023/03/27 11:15:50;;;;;;;4.82;1.00;;;12.80;77.80;;;;;;10495244;28;20059;-23
2023/03/27 11:20:58;;;;;;;5.93;0.77;;;13.90;92.80;;;;;;10495860;28;20076;-24
2023/03/27 11:26:04;;;;;;;2.72;0.52;;;16.40;70.50;;;;;;10514516;28;20049;-24
2023/03/27 11:31:13;;;;;;;3.58;0.90;;;16.00;70.80;;;;;;10499110;28;20469;-21
2023/03/27 11:36:36;;;;;;;4.93;0.82;;;11.40;73.40;;;;;;10500261;28;20461;-23
2023/03/27 11:41:38;;;;;;;;;;;13.30;89.80;;;;;;10502939;28;20477;-24
2023/03/27 11:46:55;;;;;;;6.03;0.82;;;13.00;71.20;;;;;;10504962;28;19975;-22
2023/03/27 11:52:08;;;;;;;5.10;0.60;;;12.90;93.90;;;;;;10502350;28;20052;-24
2023/03/27 11:57:19;;;;;;;2.80;0.68;;;14.40;86.20;;;;;;10511428;28;20045;-23
2023/03/27 12:02:41;;;;;;;3.38;0.73;;;12.10;73.10;;;;;;10497337;28;20447;-24
2023/03/27 12:07:55;;;;;;;5.43;1.27;;;10.50;75.10;;;;;;10498470;28;20151;-21
2023/03/27 12:13:33;;;;;;;13.05;2.67;;;11.30;98.20;;;;;;10491514;28;20058;-24
2023/03/27 12:18:47;;;;;;;8.70;1.00;;;12.00;99.80;;;;;;10496074;28;20045;-23
2023/03/27 12:24:11;;;;;;;5.82;1.30;;;11.80;93.60;;;;;;10501593;28;20121;-23
2023/03/27 12:29:25;;;;;;;9.90;1.20;;;14.20;88.00;;;;;;10500762;28;20045;-22
2023/03/27 12:34:49;;;;;;;7.05;0.70;;;11.90;74.10;;;;;;10505212;28;20090;-23
2023/03/27 12:39:54;;;;;;;2.88;0.70;;;13.80;90.60;;;;;;10500697;28;20135;-22
2023/03/27 12:45:12;;;;;;;1.88;0.65;;;13.50;72.20;;;;;;10503235;28;20041;-23
2023/03/27 12:50:34;;;;;;;5.35;0.93;;;11.40;80.00;;;;;;10492201;28;20087;-23
2023/03/27 12:55:37;;;;;;;4.55;0.65;;;12.90;92.60;;;;;;10494776;28;20079;-23
2023/03/27 13:00:39;;;;;;;1.52;0.68;;;13.50;94.00;;;;;;10498020;28;20045;-23
2023/03/27 13:06:14;;;;;;;5.60;1.00;;;15.10;83.80;;;;;;10502709;28;20079;-24
2023/03/27 13:11:37;;;;;;;3.80;0.70;;;13.80;78.90;;;;;;10499976;28;20055;-24
2023/03/27 13:16:56;;;;;;;5.53;0.98;;;14.90;91.60;;;;;;10503852;28;20071;-23
2023/03/27 13:22:16;;;;;;;5.30;0.80;;;14.10;92.20;;;;;;10492596;28;20072;-23
2023/03/27 13:27:34;;;;;;;6.43;0.63;;;16.30;84.10;;;;;;10482739;28;20088;-23
2023/03/27 13:32:37;;;;;;;8.30;1.00;;;15.30;89.90;;;;;;10482056;28;20053;-23
2023/03/27 13:37:47;;;;;;;5.70;0.80;;;15.60;71.90;;;;;;10499534;28;20047;-22
2023/03/27 13:42:53;;;;;;;5.43;1.13;;;15.60;90.10;;;;;;10502203;28;20059;-23
2023/03/27 13:48:13;;;;;;;6.50;1.08;;;13.30;72.70;;;;;;10493125;28;20462;-23
2023/03/27 13:53:37;;;;;;;2.25;0.90;;;15.00;65.20;;;;;;10488187;28;20047;-21
2023/03/27 13:59:06;;;;;;;6.88;0.82;;;16.00;76.40;;;;;;10480021;28;20132;-21
2023/03/27 14:04:39;;;;;;;9.05;1.08;;;16.10;88.90;;;;;;10487006;28;20052;-23
2023/03/27 14:10:00;;;;;;;5.87;1.00;;;15.60;63.90;;;;;;10502806;28;20554;-23
2023/03/27 14:15:21;;;;;;;6.60;1.05;;;14.20;69.00;;;;;;10494838;28;20917;-23
2023/03/27 14:20:25;;;;;;;5.95;1.17;;;13.90;94.90;;;;;;10485488;28;20134;-21
2023/03/27 14:25:33;;;;;;;11.27;1.15;;;12.90;64.80;;;;;;10493819;28;20488;-22
2023/03/27 14:30:44;;;;;;;5.50;0.57;;;15.10;90.70;;;;;;10484139;28;20098;-23
2023/03/27 14:35:52;;;;;;;3.90;1.27;;;15.90;86.20;;;;;;10503710;28;20056;-22
2023/03/27 14:40:57;;;;;;;5.82;1.45;;;15.90;80.80;;;;;;10499560;28;20052;-24
2023/03/27 14:46:02;;;;;;;2.17;0.73;;;13.30;55.20;;;;;;10496395;28;20516;-24
2023/03/27 14:51:12;;;;;;;6.28;0.82;;;14.50;86.30;;;;;;10494745;28;20052;-23
2023/03/27 14:56:26;;;;;;;9.27;0.95;;;15.00;93.50;;;;;;10494552;28;20055;-23
2023/03/27 15:01:31;;;;;;;8.93;0.65;;;13.40;96.50;;;;;;10495204;28;20120;-24
2023/03/27 15:06:35;;;;;;;4.32;0.45;;;15.90;89.00;;;;;;10502827;28;20476;-23
2023/03/27 15:11:39;;;;;;;6.65;0.98;;;15.20;94.90;;;;;;10496766;28;20139;-25
2023/03/27 15:16:47;;;;;;;8.43;1.10;;;15.70;60.50;;;;;;10503918;28;20464;-24
2023/03/27 15:21:55;;;;;;;5.95;0.93;;;15.80;88.20;;;;;;10503425;28;20036;-22
2023/03/27 15:26:57;;;;;;;5.13;0.88;;;15.40;65.60;;;;;;10504382;28;20051;-23
2023/03/27 15:32:07;;;;;;;2.58;0.68;;;16.00;62.60;;;;;;10499298;28;20120;-24
2023/03/27 15:37:14;;;;;;;5.72;1.08;;;17.00;66.60;;;;;;10503118;28;20048;-23
2023/03/27 15:42:16;;;;;;;3.83;0.80;;;16.10;90.30;;;;;;10497007;28;20476;-22
2023/03/27 15:47:29;;;;;;;1.37;0.53;;;16.00;63.20;;;;;;10492397;28;20447;-23
2023/03/27 15:52:31;;;;;;;;;;;16.40;84.80;;;;;;10503482;28;20535;-23
2023/03/27 15:57:33;;;;;;;5.60;1.00;;;15.50;92.60;;;;;;10493976;28;19959;-22
2023/03/27 16:02:37;;;;;;;3.03;0.60;;;16.80;83.90;;;;;;10492585;28;20167;-23
2023/03/27 16:07:44;;;;;;;5.93;1.05;;;18.10;64.20;;;;;;10492483;28;20132;-22
2023/03/27 16:12:51;;;;;;;8.18;0.70;;;17.50;67.10;;;;;;10497035;28;20056;-25
2023/03/27 16:17:56;;;;;;;11.38;1.15;;;17.60;72.20;;;;;;10498881;28;20098;-23
2023/03/27 16:22:58;;;;;;;11.15;1.50;;;17.60;64.70;;;;;;10489261;28;20881;-23
2023/03/27 16:27:59;;;;;;;1.83;0.87;;;16.90;66.50;;;;;;10492485;28;20060;-22
2023/03/27 16:33:03;;;;;;;4.20;0.97;;;17.30;77.00;;;;;;10487339;28;20048;-22
2023/03/27 16:38:05;;;;;;;6.85;1.13;;;17.20;86.50;;;;;;10488604;28;20147;-23
2023/03/27 16:43:07;;;;;;;3.87;1.03;;;15.90;90.80;;;;;;10490942;28;20052;-23
2023/03/27 16:48:12;;;;;;;3.63;1.17;;;16.20;66.90;;;;;;10491325;28;20660;-23
2023/03/27 16:53:14;;;;;;;2.67;0.98;;;16.50;92.30;;;;;;10488977;28;20056;-22
2023/03/27 16:58:16;;;;;;;6.13;0.90;;;18.40;80.90;;;;;;10486091;28;20044;-23
2023/03/27 17:03:19;;;;;;;7.27;1.10;;;15.30;94.10;;;;;;10497754;28;20131;-23
2023/03/27 17:08:21;;;;;;;5.28;1.10;;;17.60;62.20;;;;;;10494309;28;20052;-22
2023/03/27 17:13:23;;;;;;;8.63;1.27;;;14.00;99.90;;;;;;10489958;28;20151;-24
2023/03/27 17:18:26;;;;;;;6.88;1.40;;;13.70;98.80;;;;;;10492166;28;20459;-22
2023/03/27 17:23:28;;;;;;;4.28;1.13;;;13.30;63.60;;;;;;10496658;28;20075;-23
2023/03/27 17:28:30;;;;;;;7.13;1.70;;;12.90;61.70;;;;;;10486833;28;20692;-24
2023/03/27 17:33:34;;;;;;;4.60;1.60;;;13.70;99.90;;;;;;10486388;28;20048;-23
2023/03/27 17:38:36;;;;;;;13.32;1.77;;;14.00;99.90;;;;;;10493428;28;20161;-21
2023/03/27 17:43:38;;;;;;;10.55;1.73;;;13.00;96.40;;;;;;10488912;28;20139;-29
2023/03/27 17:48:42;;;;;;;8.93;1.60;;;14.90;93.40;;;;;;10495516;28;20063;-29
2023/03/27 17:53:44;;;;;;;6.53;1.50;;;14.60;99.90;;;;;;10487368;28;20163;-29
2023/03/27 17:58:47;;;;;;;11.50;1.45;;;16.50;92.50;;;;;;10488833;28;20660;-31
2023/03/27 18:03:51;;;;;;;4.47;1.17;;;14.40;99.50;;;;;;10490682;28;20135;-28
2023/03/27 18:08:53;;;;;;;6.10;1.83;;;14.60;78.60;;;;;;10486264;28;20555;-25
2023/03/27 18:13:55;;;;;;;5.10;1.80;;;17.00;99.90;;;;;;10479330;28;20060;-24
2023/03/27 18:18:58;;;;;;;3.33;1.10;;;18.80;85.80;;;;;;10478735;28;20430;-24
2023/03/27 18:24:00;;;;;;;5.47;1.65;;;17.80;82.50;;;;;;10482752;28;20041;-25
2023/03/27 18:29:02;;;;;;;7.30;1.57;;;15.90;95.00;;;;;;10480550;28;20080;-24
2023/03/27 18:34:07;;;;;;;6.30;1.55;;;18.20;87.00;;;;;;10484781;28;20102;-23
2023/03/27 18:39:08;;;;;;;4.45;1.52;;;17.80;77.10;;;;;;10484244;28;20044;-23
2023/03/27 18:44:11;;;;;;;6.85;1.40;;;17.60;73.20;;;;;;10483552;28;20096;-25
2023/03/27 18:49:14;;;;;;;6.72;2.58;;;16.00;73.20;;;;;;10481553;28;20110;-26
2023/03/27 18:54:16;;;;;;;9.05;2.65;;;18.30;81.50;;;;;;10490056;28;20131;-24
2023/03/27 18:59:18;;;;;;;18.42;2.38;;;19.60;72.40;;;;;;10491608;28;20037;-24
2023/03/27 19:04:21;;;;;;;10.18;1.60;;;18.10;79.80;;;;;;10488212;28;20068;-24
2023/03/27 19:09:23;;;;;;;8.10;1.85;;;18.60;58.10;;;;;;10489415;28;20456;-24
2023/03/27 19:14:25;;;;;;;8.38;1.90;;;17.70;72.60;;;;;;10484452;28;20144;-24
2023/03/27 19:19:29;;;;;;;8.82;2.95;;;17.90;76.90;;;;;;10485054;28;20137;-24
2023/03/27 19:24:31;;;;;;;6.07;1.92;;;18.90;74.00;;;;;;10493659;28;20048;-24
2023/03/27 19:29:33;;;;;;;5.53;1.85;;;19.70;70.20;;;;;;10492103;28;20094;-25
2023/03/27 19:34:36;;;;;;;8.18;2.75;;;19.00;75.20;;;;;;10492423;28;20605;-23
2023/03/27 19:39:38;;;;;;;6.05;1.67;;;19.00;74.80;;;;;;10493207;28;20044;-23
2023/03/27 19:44:40;;;;;;;6.50;1.50;;;20.00;67.40;;;;;;10486061;28;20072;-24
2023/03/27 19:49:43;;;;;;;4.45;1.40;;;19.40;70.60;;;;;;10501290;28;20128;-24
2023/03/27 19:54:45;;;;;;;10.93;1.60;;;18.60;75.30;;;;;;10503728;28;20432;-23
2023/03/27 19:59:48;;;;;;;8.30;1.38;;;19.30;71.00;;;;;;10493767;28;20110;-24
2023/03/27 20:04:51;;;;;;;6.55;1.30;;;18.50;76.60;;;;;;10493946;28;20048;-25
2023/03/27 20:09:53;;;;;;;6.18;1.58;;;19.40;69.50;;;;;;10501713;28;20121;-25
2023/03/27 20:14:55;;;;;;;10.10;2.95;;;19.60;67.40;;;;;;10490981;28;20056;-22
2023/03/27 20:19:59;;;;;;;12.80;1.85;;;19.30;67.40;;;;;;10503835;28;20483;-23
2023/03/27 20:25:01;;;;;;;5.13;1.88;;;19.40;56.80;;;;;;10494422;28;20121;-22
2023/03/27 20:30:05;;;;;;;13.30;3.30;;;18.80;68.00;;;;;;10489710;28;20131;-25
2023/03/27 20:35:09;;;;;;;10.23;2.90;;;19.90;65.60;;;;;;10492293;28;20489;-22
2023/03/27 20:40:11;;;;;;;4.45;1.70;;;19.70;65.50;;;;;;10494387;28;20040;-23
2023/03/27 20:45:17;;;;;;;7.40;2.58;;;19.90;64.20;;;;;;10492254;28;20043;-23
2023/03/27 20:50:22;;;;;;;5.50;2.25;;;20.00;64.00;;;;;;10491252;28;20049;-24
2023/03/27 20:55:24;;;;;;;14.30;5.15;;;19.90;63.60;;;;;;10489811;28;20060;-24
2023/03/27 21:00:26;;;;;;;8.85;3.58;;;19.90;63.70;;;;;;10486747;28;20051;-22
2023/03/27 21:05:31;;;;;;;8.77;3.30;;;19.70;64.30;;;;;;10487275;28;20090;-24
2023/03/27 21:10:33;;;;;;;12.60;3.05;;;19.90;63.80;;;;;;10484240;28;20075;-22
2023/03/27 21:15:35;;;;;;;7.88;2.92;;;20.00;63.10;;;;;;10481405;28;20155;-25
2023/03/27 21:20:38;;;;;;;7.55;3.78;;;19.80;63.70;;;;;;10498709;28;20136;-23
2023/03/27 21:25:40;;;;;;;15.25;4.60;;;19.80;63.30;;;;;;10488656;28;20131;-24
2023/03/27 21:30:43;;;;;;;13.70;4.30;;;19.70;63.30;;;;;;10490163;28;20076;-23
2023/03/27 21:35:47;;;;;;;13.15;4.03;;;19.70;63.10;;;;;;10493133;28;20550;-24
2023/03/27 21:40:49;;;;;;;13.20;5.38;;;18.80;65.90;;;;;;10499190;28;20094;-23
2023/03/27 21:45:51;;;;;;;9.32;5.00;;;19.50;64.30;;;;;;10474087;28;20503;-23
2023/03/27 21:50:58;;;;;;;10.52;4.13;;;19.60;63.40;;;;;;10489137;28;20122;-24
2023/03/27 21:56:00;;;;;;;8.18;4.25;;;19.60;63.00;;;;;;10489491;28;20348;-23
2023/03/27 22:01:02;;;;;;;9.75;4.22;;;19.50;63.00;;;;;;10487712;28;20048;-23
2023/03/27 22:06:08;;;;;;;6.78;2.20;;;19.40;63.60;;;;;;10487602;28;20045;-26
2023/03/27 22:11:11;;;;;;;12.93;3.92;;;17.30;69.90;;;;;;10495383;28;20095;-24
2023/03/27 22:16:15;;;;;;;10.82;4.97;;;18.50;66.50;;;;;;10497015;28;20542;-24
2023/03/27 22:21:21;;;;;;;12.23;4.30;;;19.10;64.60;;;;;;10486497;28;20083;-22
2023/03/27 22:26:25;;;;;;;5.47;2.13;;;19.00;64.60;;;;;;10485923;28;20139;-24
2023/03/27 22:31:27;;;;;;;5.30;2.50;;;18.60;65.20;;;;;;10485745;28;20098;-26
2023/03/27 22:36:31;;;;;;;3.78;1.15;;;18.30;67.90;;;;;;10493418;28;20144;-23
2023/03/27 22:41:33;;;;;;;10.55;4.35;;;17.40;62.40;;;;;;10488631;28;20072;-21
2023/03/27 22:46:35;;;;;;;7.88;3.13;;;18.80;65.30;;;;;;10489481;28;20249;-22
2023/03/27 22:51:39;;;;;;;5.38;2.78;;;19.00;64.10;;;;;;10489926;28;20138;-24
2023/03/27 22:56:41;;;;;;;6.75;2.50;;;19.10;63.40;;;;;;10488201;28;20060;-24
2023/03/27 23:01:43;;;;;;;14.60;5.20;;;19.00;63.40;;;;;;10493525;28;20063;-22
2023/03/27 23:06:47;;;;;;;6.38;3.25;;;19.00;63.40;;;;;;10493350;28;20476;-23
2023/03/27 23:11:48;;;;;;;6.18;2.80;;;19.00;63.90;;;;;;10492241;28;20057;-24
2023/03/27 23:16:50;;;;;;;8.05;3.65;;;19.00;63.50;;;;;;10493305;28;20055;-24
2023/03/27 23:21:54;;;;;;;5.28;2.70;;;18.90;63.00;;;;;;10496899;28;20497;-23
2023/03/27 23:26:55;;;;;;;7.18;3.83;;;18.90;63.30;;;;;;10493950;28;20088;-23
2023/03/27 23:31:57;;;;;;;5.07;2.88;;;18.90;62.90;;;;;;10510346;28;20071;-23
2023/03/27 23:37:00;;;;;;;7.25;3.45;;;18.70;64.10;;;;;;10512140;28;20181;-23
2023/03/27 23:42:02;;;;;;;4.90;2.70;;;18.70;63.40;;;;;;10508603;28;20478;-25
2023/03/27 23:47:04;;;;;;;5.32;3.10;;;18.60;63.90;;;;;;10512409;28;20048;-23
2023/03/27 23:52:08;;;;;;;5.63;3.03;;;18.60;63.60;;;;;;10498198;28;20098;-23
2023/03/27 23:57:09;;;;;;;10.10;3.22;;;18.60;63.90;;;;;;10495296;28;20040;-24
